Avalon, Pennsylvania
Current Conditions -  °F | °C
As of 4:51 PM on Monday 26 Jan 2015 (Local Time) from KPIT Reporting Station
Light Snow Light Snow  
Wind Chill: -10°   Ceiling: 1200
Heat Index: -4°   Visibility: 2mi
Dew Point: -6°   Wind: 10mph
Humidity: 88%   Direction: 320°NW
Pressure: 29.74"   Gusts: NA
Location:  40.5069°N, 80.0715°W
Report Text: KPIT 262151Z 32009KT 2SM -SN BKN012 OVC023 M04/M06 A2974 RMK AO2 SLP094 P0000 T10391056
Loading
Personal Weather Stations






























Interactive Weather Map New forecast layout! Learn more

10-Day Weather Forecast

Advertisements
Track Severe Weather on mobile